Terminal Aerodrome Forecast
Issued by NWS

Current Version | Previous Version | Text Only | Print | Product List | Glossary On
Versions: 1 2 3 4 5 6 7 8 9 10 11 12 13 14 15 16
000
FTUS46 KPDT 211140
TAFYKM
TAF
KYKM 211140Z 2112/2212 VRB03KT P6SM SCT060 OVC120
     FM211500 20006KT P6SM VCSH BKN060
     FM212000 VRB04KT P6SM -RA OVC035
     FM220300 24005KT P6SM VCSH SCT045 OVC060=

USA.gov is the U.S. government's official web portal to all federal, state and local government web resources and services.